createdAt,value
2022-12-09T00:05:33.399Z,13
2022-12-09T00:15:39.716Z,15
2022-12-09T00:25:44.638Z,20
2022-12-09T00:35:50.554Z,24
2022-12-09T00:45:56.604Z,18
2022-12-09T00:56:01.851Z,9
2022-12-09T01:06:06.869Z,8
2022-12-09T01:16:13.352Z,10
2022-12-09T01:26:18.537Z,11
2022-12-09T01:36:23.308Z,9
2022-12-09T01:46:32.154Z,11
2022-12-09T01:56:37.251Z,10
2022-12-09T02:06:44.049Z,12
2022-12-09T02:16:52.235Z,15
2022-12-09T02:26:56.353Z,12
2022-12-09T02:37:03.679Z,14
2022-12-09T02:47:09.553Z,15
2022-12-09T02:57:12.820Z,11
2022-12-09T03:07:18.804Z,13
2022-12-09T03:17:26.510Z,12
2022-12-09T03:27:31.000Z,14
2022-12-09T03:37:38.043Z,13
2022-12-09T03:47:45.260Z,19
2022-12-09T03:57:55.908Z,16
2022-12-09T04:07:56.288Z,17
2022-12-09T04:18:01.076Z,19
2022-12-09T04:28:07.306Z,20
2022-12-09T04:38:14.900Z,19
2022-12-09T04:48:22.368Z,18
2022-12-09T04:58:26.742Z,18
2022-12-09T05:08:34.533Z,25
2022-12-09T05:18:40.426Z,29
2022-12-09T05:28:45.131Z,21
2022-12-09T05:38:49.053Z,28
2022-12-09T05:48:56.387Z,27
2022-12-09T05:59:00.132Z,32
2022-12-09T06:09:07.233Z,35
2022-12-09T06:19:15.323Z,29
2022-12-09T06:29:19.075Z,31
2022-12-09T06:39:27.900Z,25
2022-12-09T06:49:36.970Z,27
2022-12-09T06:59:40.518Z,33
2022-12-09T07:09:45.581Z,25
2022-12-09T07:19:50.700Z,25
2022-12-09T07:29:55.461Z,31
2022-12-09T07:40:01.767Z,32
2022-12-09T07:50:08.435Z,35
2022-12-09T08:00:15.346Z,29
2022-12-09T08:10:21.391Z,28
2022-12-09T08:20:30.504Z,31
2022-12-09T08:30:34.170Z,29
2022-12-09T08:40:37.500Z,32
2022-12-09T08:50:46.087Z,32
2022-12-09T09:00:52.318Z,38
2022-12-09T09:10:59.391Z,33
2022-12-09T09:21:03.404Z,36
2022-12-09T09:31:08.411Z,36
2022-12-09T09:41:15.358Z,35
2022-12-09T09:51:21.922Z,32
2022-12-09T10:01:27.618Z,34
2022-12-09T10:11:34.255Z,32
2022-12-09T10:21:38.059Z,34
2022-12-09T10:31:45.192Z,32
2022-12-09T10:41:49.448Z,36
2022-12-09T10:51:57.436Z,34
2022-12-09T11:02:02.834Z,57
2022-12-09T11:12:09.442Z,32
2022-12-09T11:22:14.348Z,29
2022-12-09T11:32:27.014Z,24
2022-12-09T11:42:29.862Z,21
2022-12-09T11:52:39.174Z,19
2022-12-09T12:02:45.389Z,22
2022-12-09T12:12:49.539Z,22
2022-12-09T12:22:55.457Z,32
2022-12-09T12:34:08.120Z,24
2022-12-09T12:44:09.606Z,21
2022-12-09T12:54:15.348Z,22
2022-12-09T13:04:21.356Z,18
2022-12-09T13:14:28.431Z,18
2022-12-09T13:24:34.993Z,19
2022-12-09T13:34:41.774Z,20
2022-12-09T13:44:48.524Z,21
2022-12-09T13:54:52.228Z,23
2022-12-09T14:04:58.921Z,18
2022-12-09T14:15:04.468Z,18
2022-12-09T14:25:10.231Z,18
2022-12-09T14:35:13.920Z,18
2022-12-09T14:45:20.176Z,19
2022-12-09T14:53:26.961Z,20
2022-12-09T15:04:27.414Z,19
2022-12-09T15:14:20.163Z,20
2022-12-09T15:24:27.795Z,20
2022-12-09T15:34:29.270Z,24
2022-12-09T15:44:42.232Z,21
2022-12-09T15:54:42.533Z,27
2022-12-09T16:04:46.054Z,29
2022-12-09T16:14:52.973Z,29
2022-12-09T16:25:21.686Z,24
2022-12-09T16:35:15.988Z,33
2022-12-09T16:45:20.927Z,31
2022-12-09T16:55:28.773Z,27
2022-12-09T17:05:34.000Z,24
2022-12-09T17:15:41.135Z,27
2022-12-09T17:25:47.630Z,25
2022-12-09T17:36:00.766Z,29
2022-12-09T17:45:57.487Z,25
2022-12-09T17:56:03.084Z,28
2022-12-09T18:06:09.222Z,28
2022-12-09T18:16:14.924Z,37
2022-12-09T18:26:18.503Z,30
2022-12-09T18:36:24.251Z,24
2022-12-09T18:46:29.102Z,28
2022-12-09T18:56:34.123Z,32
2022-12-09T19:06:37.885Z,33
2022-12-09T19:16:51.242Z,32
2022-12-09T19:26:55.978Z,35
2022-12-09T19:37:04.136Z,33
2022-12-09T19:47:09.337Z,31
2022-12-09T19:57:14.675Z,29
2022-12-09T20:07:20.445Z,32
2022-12-09T20:17:23.848Z,32
2022-12-09T20:27:30.756Z,30
2022-12-09T20:37:35.651Z,29
2022-12-09T20:47:40.955Z,28
2022-12-09T20:57:47.372Z,28
2022-12-09T21:07:52.525Z,28
2022-12-09T21:17:58.794Z,25
2022-12-09T21:28:03.855Z,22
2022-12-09T21:38:10.583Z,23
2022-12-09T21:48:16.032Z,22
2022-12-09T21:58:23.494Z,23
2022-12-09T22:08:31.085Z,27
2022-12-09T22:18:35.871Z,24
2022-12-09T22:29:27.600Z,25
2022-12-09T22:39:32.637Z,31
2022-12-09T22:49:39.827Z,29
2022-12-09T22:59:47.480Z,29
2022-12-09T23:09:54.435Z,35
2022-12-09T23:20:00.032Z,30
2022-12-09T23:30:03.589Z,31
2022-12-09T23:40:11.265Z,32
2022-12-09T23:50:15.280Z,33
